Terminal Aerodrome Forecast
Issued by NWS

Home | Current Version | Previous Version | Text Only | Print | Product List | Glossary On
Versions: 1 2 3 4 5 6 7 8 9 10 11 12 13 14 15 16 17 18 19 20 21 22 23 24 25 26
000
FTUS43 KGRR 131614 AAC
TAFJXN
TAF AMD
KJXN 131614Z 1316/1412 14008KT 1/4SM +SN VV012
     FM131700 16011KT 5SM -SN BR OVC025
     FM132300 08010KT 4SM -SN BR OVC015
     FM140400 36008KT 5SM -SN BR OVC035
     FM140700 36006KT P6SM BKN080=

USA.gov is the U.S. government's official web portal to all federal, state and local government web resources and services.